Time;durP1;ratioP1;P1;durP2;ratioP2;P2;SDS_P1;SDS_P2;PMS_P1;PMS_P2;Temp;Humidity;BMP_temperature;BMP_pressure;BME280_temperature;BME280_humidity;BME280_pressure;Samples;Min_cycle;Max_cycle;Signal;HPM_P1;HPM_P2
2023/05/07 00:02:28;;;;;;;7.63;2.67;;;17.20;59.10;;;;;;4964296;28;20502;-39
2023/05/07 00:04:55;;;;;;;2.88;2.10;;;17.20;59.30;;;;;;4963259;28;20054;-40
2023/05/07 00:07:22;;;;;;;4.10;2.45;;;17.20;59.30;;;;;;4964162;28;20061;-40
2023/05/07 00:09:49;;;;;;;5.43;2.40;;;17.30;59.30;;;;;;4963774;28;20431;-39
2023/05/07 00:12:16;;;;;;;3.72;2.22;;;17.20;59.20;;;;;;4964984;28;20063;-39
2023/05/07 00:14:44;;;;;;;5.47;2.40;;;17.30;59.70;;;;;;4963061;28;20502;-40
2023/05/07 00:17:11;;;;;;;5.50;2.40;;;17.30;59.30;;;;;;4965251;28;20059;-41
2023/05/07 00:19:39;;;;;;;3.45;2.22;;;17.30;59.30;;;;;;4964330;28;20055;-41
2023/05/07 00:22:07;;;;;;;3.88;2.40;;;17.20;59.30;;;;;;4963772;28;20058;-38
2023/05/07 00:24:35;;;;;;;6.15;2.88;;;17.30;59.30;;;;;;4963080;28;20054;-40
2023/05/07 00:27:02;;;;;;;4.63;2.35;;;17.30;59.40;;;;;;4964005;28;20062;-37
2023/05/07 00:29:29;;;;;;;3.35;2.53;;;17.20;59.50;;;;;;4963598;28;20065;-39
2023/05/07 00:31:56;;;;;;;3.38;2.67;;;17.20;59.50;;;;;;4963015;28;20059;-38
2023/05/07 00:34:23;;;;;;;3.63;2.40;;;17.20;59.50;;;;;;4966022;28;20058;-37
2023/05/07 00:36:52;;;;;;;4.25;2.70;;;17.30;59.50;;;;;;4963603;28;20499;-38
2023/05/07 00:39:19;;;;;;;4.95;3.17;;;17.30;59.50;;;;;;4967903;28;20050;-40
2023/05/07 00:41:47;;;;;;;4.20;2.58;;;17.30;59.50;;;;;;4967909;28;20054;-39
2023/05/07 00:44:14;;;;;;;4.97;2.42;;;17.30;59.50;;;;;;4967745;28;20047;-39
2023/05/07 00:46:41;;;;;;;4.60;3.20;;;17.30;59.60;;;;;;4966413;28;20059;-40
2023/05/07 00:49:09;;;;;;;4.53;2.83;;;17.30;59.60;;;;;;4968719;28;20428;-37
2023/05/07 00:51:36;;;;;;;4.88;2.80;;;17.30;60.10;;;;;;4967606;28;20081;-38
2023/05/07 00:54:05;;;;;;;7.35;2.88;;;17.30;59.50;;;;;;4967241;28;20414;-37
2023/05/07 00:56:33;;;;;;;5.47;2.60;;;17.30;59.50;;;;;;4967248;28;20062;-40
2023/05/07 00:59:01;;;;;;;8.57;2.80;;;17.30;59.50;;;;;;4966720;28;20058;-38
2023/05/07 01:01:28;;;;;;;4.47;2.60;;;17.30;59.50;;;;;;4978749;23;20055;-45
2023/05/07 01:03:56;;;;;;;5.20;3.15;;;17.30;59.50;;;;;;4947775;28;20522;-43
2023/05/07 01:06:26;;;;;;;4.28;2.80;;;17.30;59.50;;;;;;4948491;28;20509;-48
2023/05/07 01:08:55;;;;;;;4.30;2.45;;;17.30;59.50;;;;;;4947237;28;20051;-47
2023/05/07 01:11:25;;;;;;;4.07;2.70;;;17.30;59.50;;;;;;4947922;28;20074;-44
2023/05/07 01:13:53;;;;;;;4.28;2.63;;;17.30;59.40;;;;;;4946263;28;21298;-45
2023/05/07 01:16:20;;;;;;;4.25;2.78;;;17.30;59.40;;;;;;4945823;28;20062;-44
2023/05/07 01:18:48;;;;;;;8.10;3.05;;;17.30;59.40;;;;;;4947130;28;20066;-45
2023/05/07 01:21:17;;;;;;;3.60;2.88;;;17.30;59.40;;;;;;4947758;28;20585;-46
2023/05/07 01:23:47;;;;;;;4.32;2.95;;;17.30;59.40;;;;;;4948757;28;20073;-45
2023/05/07 01:26:14;;;;;;;4.13;2.75;;;17.30;59.40;;;;;;4947151;28;20648;-46
2023/05/07 01:28:41;;;;;;;4.70;2.88;;;17.30;59.30;;;;;;4947052;28;20055;-43
2023/05/07 01:31:10;;;;;;;5.88;3.08;;;17.30;59.30;;;;;;4944923;28;20055;-44
2023/05/07 01:33:41;;;;;;;5.78;3.10;;;17.30;59.30;;;;;;4946582;28;20422;-45
2023/05/07 01:36:11;;;;;;;5.13;2.90;;;17.30;59.30;;;;;;4947253;28;20055;-44
2023/05/07 01:38:40;;;;;;;4.13;2.60;;;17.40;59.40;;;;;;4947216;28;20042;-43
2023/05/07 01:41:09;;;;;;;4.18;3.05;;;17.30;59.30;;;;;;4948105;28;20463;-47
2023/05/07 01:43:36;;;;;;;4.60;2.55;;;17.30;59.30;;;;;;4947098;28;20058;-45
2023/05/07 01:46:04;;;;;;;3.40;2.33;;;17.30;59.30;;;;;;4945770;28;20055;-44
2023/05/07 01:48:32;;;;;;;5.90;2.92;;;17.30;59.30;;;;;;4946526;28;20055;-46
2023/05/07 01:51:00;;;;;;;4.00;2.47;;;17.30;59.30;;;;;;4946107;28;20059;-46
2023/05/07 01:53:28;;;;;;;4.05;2.47;;;17.30;59.30;;;;;;4946391;28;20365;-46
2023/05/07 01:55:55;;;;;;;10.07;2.72;;;17.30;59.30;;;;;;4946752;28;20066;-44
2023/05/07 01:58:24;;;;;;;3.42;2.47;;;17.30;59.30;;;;;;4947383;28;20063;-47
2023/05/07 02:00:51;;;;;;;4.35;2.15;;;17.30;59.30;;;;;;4948987;28;20051;-47
2023/05/07 02:03:18;;;;;;;5.05;2.50;;;17.30;59.30;;;;;;4961661;28;20063;-47
2023/05/07 02:05:46;;;;;;;4.18;2.28;;;17.40;59.30;;;;;;4963956;28;20407;-48
2023/05/07 02:08:13;;;;;;;3.25;2.15;;;17.30;59.30;;;;;;4958721;28;20058;-47
2023/05/07 02:10:40;;;;;;;2.20;1.90;;;17.30;59.30;;;;;;4960365;28;20422;-47
2023/05/07 02:13:10;;;;;;;2.83;2.10;;;17.30;59.20;;;;;;4955399;28;20059;-46
2023/05/07 02:15:38;;;;;;;3.88;2.10;;;17.30;59.20;;;;;;4962318;28;20494;-46
2023/05/07 02:18:07;;;;;;;2.53;2.00;;;17.40;59.30;;;;;;4964646;28;20157;-47
2023/05/07 02:20:34;;;;;;;6.07;2.15;;;17.30;59.20;;;;;;4963435;28;20122;-48
2023/05/07 02:23:02;;;;;;;2.75;2.00;;;17.40;59.20;;;;;;4963698;28;20050;-47
2023/05/07 02:25:29;;;;;;;2.67;2.00;;;17.40;59.20;;;;;;4962997;28;20506;-47
2023/05/07 02:27:57;;;;;;;2.92;2.03;;;17.40;59.20;;;;;;4963889;28;20078;-47
2023/05/07 02:30:25;;;;;;;3.47;2.33;;;17.40;59.20;;;;;;4961525;28;20537;-47
2023/05/07 02:32:54;;;;;;;3.63;1.98;;;17.40;59.20;;;;;;4962135;28;20058;-50
2023/05/07 02:35:22;;;;;;;4.35;2.05;;;17.40;59.20;;;;;;4963233;28;20058;-47
2023/05/07 02:37:50;;;;;;;3.20;1.95;;;17.40;59.20;;;;;;4961676;28;20058;-49
2023/05/07 02:40:17;;;;;;;3.85;1.92;;;17.30;59.20;;;;;;4963188;28;20057;-48
2023/05/07 02:42:44;;;;;;;2.92;2.00;;;17.40;59.20;;;;;;4962839;28;20047;-49
2023/05/07 02:45:12;;;;;;;4.20;1.98;;;17.30;59.10;;;;;;4961922;28;20406;-48
2023/05/07 02:47:39;;;;;;;2.83;2.08;;;17.40;59.10;;;;;;4969470;28;20509;-47
2023/05/07 02:50:11;;;;;;;3.03;2.03;;;17.40;59.10;;;;;;4963929;28;20057;-47
2023/05/07 02:52:38;;;;;;;2.90;1.90;;;17.30;59.10;;;;;;4961615;28;20055;-50
2023/05/07 02:55:07;;;;;;;2.97;1.98;;;17.40;59.10;;;;;;4962873;28;20051;-47
2023/05/07 02:57:34;;;;;;;5.68;1.95;;;17.30;59.00;;;;;;4963165;28;20058;-51
2023/05/07 03:00:14;;;;;;;3.28;1.98;;;17.30;59.00;;;;;;4962165;28;20564;-47
2023/05/07 03:02:41;;;;;;;2.60;1.70;;;17.30;59.10;;;;;;4962600;28;20066;-50
2023/05/07 03:05:10;;;;;;;2.75;1.75;;;17.30;59.00;;;;;;4960856;28;20062;-46
2023/05/07 03:07:37;;;;;;;2.85;1.88;;;17.30;59.00;;;;;;4980525;28;20054;-47
2023/05/07 03:10:06;;;;;;;2.78;1.80;;;17.30;59.00;;;;;;4980384;28;20137;-47
2023/05/07 03:12:33;;;;;;;6.60;1.92;;;17.30;59.00;;;;;;4982082;28;20502;-46
2023/05/07 03:15:00;;;;;;;3.35;1.90;;;17.30;59.00;;;;;;4980690;28;20394;-46
2023/05/07 03:17:27;;;;;;;4.93;1.95;;;17.30;59.00;;;;;;4980227;28;20065;-48
2023/05/07 03:19:55;;;;;;;2.15;1.80;;;17.20;58.90;;;;;;4982025;28;20466;-47
2023/05/07 03:22:23;;;;;;;2.83;1.70;;;17.30;59.00;;;;;;4975780;28;20073;-48
2023/05/07 03:24:50;;;;;;;2.08;1.58;;;17.20;58.90;;;;;;4976628;28;20050;-48
2023/05/07 03:27:18;;;;;;;2.13;1.80;;;17.30;58.90;;;;;;4982149;28;20054;-47
2023/05/07 03:29:45;;;;;;;3.95;1.83;;;17.20;58.90;;;;;;4980749;28;20054;-48
2023/05/07 03:32:12;;;;;;;1.95;1.40;;;17.20;58.90;;;;;;4975493;28;20050;-48
2023/05/07 03:34:40;;;;;;;1.60;1.33;;;17.20;58.90;;;;;;4977295;28;20058;-49
2023/05/07 03:37:07;;;;;;;6.10;1.92;;;17.20;58.90;;;;;;4978963;28;20077;-48
2023/05/07 03:39:36;;;;;;;3.08;1.80;;;17.20;58.90;;;;;;4975635;28;20449;-47
2023/05/07 03:42:05;;;;;;;1.83;1.45;;;17.20;59.00;;;;;;4976885;28;20053;-47
2023/05/07 03:44:33;;;;;;;1.95;1.60;;;17.20;59.00;;;;;;4974318;28;20054;-47
2023/05/07 03:47:00;;;;;;;2.53;1.67;;;17.20;59.00;;;;;;4971220;28;20059;-48
2023/05/07 03:49:27;;;;;;;3.25;1.90;;;17.20;59.00;;;;;;4978095;28;20046;-47
2023/05/07 03:51:55;;;;;;;2.53;1.70;;;17.10;59.00;;;;;;4978792;28;20069;-47
2023/05/07 03:54:22;;;;;;;2.70;1.85;;;17.10;59.00;;;;;;4978363;28;20058;-47
2023/05/07 03:56:51;;;;;;;3.33;1.98;;;17.10;59.10;;;;;;4973890;28;20057;-46
2023/05/07 03:59:18;;;;;;;7.65;1.70;;;17.10;59.10;;;;;;4976333;28;20434;-48
2023/05/07 04:01:45;;;;;;;1.80;1.40;;;17.10;59.10;;;;;;4971797;28;20818;-49
2023/05/07 04:04:15;;;;;;;2.58;1.73;;;17.10;59.10;;;;;;4977190;28;20053;-47
2023/05/07 04:06:42;;;;;;;3.85;1.48;;;17.10;59.10;;;;;;4977664;28;20053;-47
2023/05/07 04:09:10;;;;;;;2.08;1.73;;;17.10;59.10;;;;;;4977723;28;20387;-48
2023/05/07 04:11:37;;;;;;;1.55;1.30;;;17.10;59.10;;;;;;4976693;28;20417;-47
2023/05/07 04:14:05;;;;;;;2.88;1.55;;;17.10;59.10;;;;;;4978675;28;20050;-48
2023/05/07 04:16:33;;;;;;;2.75;1.63;;;17.20;59.20;;;;;;4972749;28;20054;-46
2023/05/07 04:19:00;;;;;;;2.38;1.58;;;17.10;59.20;;;;;;4974590;28;20061;-47
2023/05/07 04:21:27;;;;;;;2.30;1.67;;;17.20;59.30;;;;;;4977190;28;20438;-49
2023/05/07 04:23:54;;;;;;;1.75;1.50;;;17.20;59.30;;;;;;4976380;28;20521;-49
2023/05/07 04:26:23;;;;;;;2.95;1.80;;;17.10;59.30;;;;;;4978547;28;20685;-47
2023/05/07 04:28:50;;;;;;;1.52;1.42;;;17.10;59.30;;;;;;4978994;28;20483;-46
2023/05/07 04:31:19;;;;;;;1.80;1.50;;;17.10;59.30;;;;;;4972175;28;20402;-51
2023/05/07 04:33:46;;;;;;;2.00;1.40;;;17.20;59.40;;;;;;4975892;28;20421;-49
2023/05/07 04:36:14;;;;;;;2.00;1.27;;;17.20;59.40;;;;;;4976560;28;20050;-48
2023/05/07 04:38:42;;;;;;;2.45;1.63;;;17.20;59.40;;;;;;4979302;28;20081;-50
2023/05/07 04:41:11;;;;;;;2.25;1.50;;;17.20;59.40;;;;;;4974370;28;20070;-49
2023/05/07 04:43:38;;;;;;;2.65;1.67;;;17.20;59.40;;;;;;4972212;28;20070;-48
2023/05/07 04:46:05;;;;;;;2.72;1.48;;;17.20;59.40;;;;;;4971096;28;20057;-44
2023/05/07 04:48:34;;;;;;;2.83;1.58;;;17.20;59.40;;;;;;4976047;28;20517;-47
2023/05/07 04:51:02;;;;;;;3.53;1.48;;;17.20;59.50;;;;;;4975792;28;20754;-46
2023/05/07 04:53:29;;;;;;;3.78;2.17;;;17.30;59.50;;;;;;4975038;28;20065;-47
2023/05/07 04:55:59;;;;;;;3.70;2.45;;;17.20;59.50;;;;;;4975890;28;20046;-44
2023/05/07 04:58:27;;;;;;;2.58;1.80;;;17.30;59.50;;;;;;4976801;28;20402;-48
2023/05/07 05:00:54;;;;;;;2.22;1.63;;;17.30;59.50;;;;;;4978148;28;21093;-46
2023/05/07 05:03:21;;;;;;;2.67;1.63;;;17.30;59.50;;;;;;4978570;28;20062;-45
2023/05/07 05:05:52;;;;;;;1.73;1.40;;;17.30;59.50;;;;;;4977993;28;20054;-44
2023/05/07 05:08:19;;;;;;;2.28;1.80;;;17.30;59.50;;;;;;4978645;28;20533;-45
2023/05/07 05:10:48;;;;;;;2.00;1.48;;;17.40;59.50;;;;;;4974977;28;20062;-46
2023/05/07 05:13:15;;;;;;;2.47;1.77;;;17.30;59.40;;;;;;4976151;28;20069;-47
2023/05/07 05:15:43;;;;;;;2.08;1.50;;;17.40;59.50;;;;;;4973189;28;20494;-45
2023/05/07 05:18:11;;;;;;;2.67;1.67;;;17.40;59.40;;;;;;4976207;28;20069;-45
2023/05/07 05:20:38;;;;;;;2.38;1.70;;;17.40;59.40;;;;;;4976540;28;20578;-48
2023/05/07 05:23:08;;;;;;;2.30;1.50;;;17.40;59.30;;;;;;4976759;28;20054;-46
2023/05/07 05:25:35;;;;;;;5.78;2.30;;;17.50;59.30;;;;;;4982823;28;20500;-49
2023/05/07 05:28:03;;;;;;;2.83;1.58;;;17.50;59.30;;;;;;4983661;28;20088;-50
2023/05/07 05:30:30;;;;;;;2.45;1.63;;;17.50;59.30;;;;;;4974454;28;20054;-48
2023/05/07 05:32:57;;;;;;;3.15;1.52;;;17.50;59.30;;;;;;4978775;28;20069;-44
2023/05/07 05:35:25;;;;;;;2.47;1.70;;;17.50;59.30;;;;;;4976160;28;20528;-47
2023/05/07 05:37:52;;;;;;;3.55;1.92;;;17.60;59.30;;;;;;4977505;28;20050;-48
2023/05/07 05:40:20;;;;;;;2.05;1.50;;;17.60;59.30;;;;;;4978720;28;20054;-47
2023/05/07 05:42:48;;;;;;;1.88;1.60;;;17.60;59.30;;;;;;4980036;28;20497;-46
2023/05/07 05:45:15;;;;;;;2.97;1.60;;;17.70;59.30;;;;;;4974956;28;20054;-45
2023/05/07 05:47:42;;;;;;;7.55;1.42;;;17.70;59.30;;;;;;4974638;28;20050;-48
2023/05/07 05:50:10;;;;;;;2.65;1.85;;;17.70;59.30;;;;;;4975870;28;20054;-46
2023/05/07 05:52:37;;;;;;;1.80;1.40;;;17.80;59.30;;;;;;4981749;28;20463;-48
2023/05/07 05:55:05;;;;;;;1.90;1.40;;;17.80;59.20;;;;;;4981487;28;20050;-46
2023/05/07 05:57:34;;;;;;;1.88;1.58;;;17.80;59.20;;;;;;4983511;28;20050;-45
2023/05/07 06:00:02;;;;;;;3.13;1.85;;;17.90;59.20;;;;;;4981649;28;20054;-47
2023/05/07 06:02:30;;;;;;;4.03;2.42;;;17.90;59.20;;;;;;4976409;28;20058;-45
2023/05/07 06:04:57;;;;;;;3.63;2.50;;;18.00;59.10;;;;;;4982973;28;20065;-46
2023/05/07 06:07:26;;;;;;;3.40;2.20;;;18.00;59.00;;;;;;4981042;28;20062;-46
2023/05/07 06:09:54;;;;;;;3.47;1.90;;;18.10;59.00;;;;;;4981429;28;20466;-51
2023/05/07 06:12:21;;;;;;;4.97;1.75;;;18.10;59.00;;;;;;4983263;28;20506;-47
2023/05/07 06:14:50;;;;;;;2.70;1.67;;;18.10;58.90;;;;;;4978297;28;20525;-46
2023/05/07 06:17:18;;;;;;;2.95;2.22;;;18.20;58.90;;;;;;4978782;28;20053;-46
2023/05/07 06:19:46;;;;;;;2.70;2.17;;;18.20;58.90;;;;;;4980525;28;20058;-45
2023/05/07 06:22:14;;;;;;;2.60;2.00;;;18.20;58.90;;;;;;4980020;28;20054;-45
2023/05/07 06:24:42;;;;;;;4.10;1.88;;;18.30;59.00;;;;;;4981347;28;20050;-45
2023/05/07 06:27:10;;;;;;;2.00;1.48;;;18.30;58.90;;;;;;4971722;28;20046;-45
2023/05/07 06:29:38;;;;;;;3.50;1.60;;;18.30;58.90;;;;;;4973504;28;20061;-47
2023/05/07 06:32:11;;;;;;;8.57;2.25;;;18.40;58.80;;;;;;4978098;28;20820;-45
2023/05/07 06:34:40;;;;;;;1.75;1.52;;;18.40;58.70;;;;;;4977297;28;20054;-44
2023/05/07 06:37:07;;;;;;;3.42;1.73;;;18.50;58.70;;;;;;4976737;28;20059;-45
2023/05/07 06:39:35;;;;;;;3.38;1.40;;;18.50;58.70;;;;;;4975809;28;20681;-45
2023/05/07 06:42:04;;;;;;;2.70;1.48;;;18.60;58.60;;;;;;4979291;28;20054;-46
2023/05/07 06:44:32;;;;;;;2.28;1.67;;;18.60;58.50;;;;;;4977070;28;20399;-48
2023/05/07 06:47:00;;;;;;;3.70;1.20;;;18.70;58.40;;;;;;4977756;28;20042;-45
2023/05/07 06:49:29;;;;;;;3.55;1.77;;;18.70;58.30;;;;;;4978709;28;20046;-45
2023/05/07 06:51:57;;;;;;;2.20;1.40;;;18.80;58.30;;;;;;4978124;28;20061;-46
2023/05/07 06:54:25;;;;;;;3.28;1.83;;;18.80;58.20;;;;;;4976062;28;20073;-45
2023/05/07 06:56:53;;;;;;;5.40;1.67;;;18.90;58.00;;;;;;4978266;28;20057;-47
2023/05/07 06:59:21;;;;;;;2.00;1.50;;;19.00;58.00;;;;;;4975961;28;20065;-49
2023/05/07 07:01:48;;;;;;;2.00;1.40;;;19.00;57.70;;;;;;4977940;28;20061;-47
2023/05/07 07:04:17;;;;;;;2.03;1.35;;;19.10;57.70;;;;;;4983347;28;20532;-46
2023/05/07 07:06:46;;;;;;;3.83;1.58;;;19.10;57.50;;;;;;4982877;28;20054;-44
2023/05/07 07:09:14;;;;;;;2.70;1.40;;;19.20;57.40;;;;;;4982818;28;20097;-46
2023/05/07 07:11:41;;;;;;;2.17;1.38;;;19.20;57.30;;;;;;4979848;28;20061;-44
2023/05/07 07:14:08;;;;;;;1.75;1.17;;;19.30;57.10;;;;;;4980832;28;20061;-45
2023/05/07 07:16:35;;;;;;;3.08;1.42;;;19.30;56.90;;;;;;4980613;28;20066;-44
2023/05/07 07:19:03;;;;;;;3.25;1.60;;;19.40;56.60;;;;;;4978206;28;20058;-49
2023/05/07 07:21:30;;;;;;;2.05;1.27;;;19.40;56.40;;;;;;4983181;28;20062;-45
2023/05/07 07:23:59;;;;;;;2.45;1.30;;;19.40;56.20;;;;;;4982544;28;20050;-48
2023/05/07 07:26:26;;;;;;;1.35;1.17;;;19.50;55.90;;;;;;4980014;28;20058;-46
2023/05/07 07:28:53;;;;;;;2.10;1.50;;;19.50;55.90;;;;;;4978942;28;20058;-45
2023/05/07 07:31:21;;;;;;;1.83;1.40;;;19.50;55.70;;;;;;4979840;28;20077;-46
2023/05/07 07:33:49;;;;;;;2.05;1.13;;;19.60;55.70;;;;;;4982539;28;20057;-47
2023/05/07 07:36:17;;;;;;;2.22;1.30;;;19.60;55.60;;;;;;4981725;28;20050;-47
2023/05/07 07:38:44;;;;;;;3.42;1.60;;;19.70;55.60;;;;;;4981993;28;20054;-46
2023/05/07 07:41:12;;;;;;;4.45;1.83;;;19.70;55.60;;;;;;4981329;28;20050;-48
2023/05/07 07:43:40;;;;;;;3.53;1.40;;;19.70;55.50;;;;;;4981779;28;20062;-45
2023/05/07 07:46:07;;;;;;;2.72;1.58;;;19.80;55.50;;;;;;4980475;28;20076;-46
2023/05/07 07:48:34;;;;;;;3.80;1.38;;;19.80;55.50;;;;;;4976878;28;20070;-50
2023/05/07 07:51:02;;;;;;;3.05;1.50;;;19.80;55.50;;;;;;4979268;28;20050;-45
2023/05/07 07:53:29;;;;;;;3.67;1.60;;;19.90;55.50;;;;;;4981804;28;20054;-45
2023/05/07 07:55:56;;;;;;;3.03;1.33;;;20.00;55.60;;;;;;4979230;28;20426;-47
2023/05/07 07:58:25;;;;;;;3.42;1.38;;;20.00;55.50;;;;;;4979743;28;20065;-45
2023/05/07 08:00:54;;;;;;;1.80;1.40;;;20.00;55.40;;;;;;4980430;28;20062;-48
2023/05/07 08:03:21;;;;;;;2.78;1.42;;;20.00;55.50;;;;;;4981832;28;20050;-45
2023/05/07 08:05:50;;;;;;;5.35;1.58;;;20.10;55.50;;;;;;4977768;28;20065;-47
2023/05/07 08:08:17;;;;;;;2.05;1.50;;;20.10;55.40;;;;;;4981661;28;20054;-48
2023/05/07 08:10:44;;;;;;;2.20;1.25;;;20.20;55.30;;;;;;4979357;28;20104;-48
2023/05/07 08:13:11;;;;;;;4.93;1.60;;;20.20;55.30;;;;;;4979850;28;20054;-50
2023/05/07 08:15:40;;;;;;;5.63;1.55;;;20.30;55.10;;;;;;4977569;28;20065;-46
2023/05/07 08:18:07;;;;;;;2.88;1.50;;;20.30;55.00;;;;;;4977204;28;20055;-49
2023/05/07 08:20:39;;;;;;;1.73;1.20;;;20.40;55.00;;;;;;4978801;28;20070;-45
2023/05/07 08:23:07;;;;;;;3.83;1.80;;;20.40;54.90;;;;;;4980376;28;20050;-47
2023/05/07 08:25:34;;;;;;;2.75;1.50;;;20.50;54.90;;;;;;4980318;28;20057;-48
2023/05/07 08:28:03;;;;;;;2.38;1.38;;;20.50;55.00;;;;;;4980931;28;20385;-46
2023/05/07 08:30:30;;;;;;;3.15;1.60;;;20.60;54.90;;;;;;4977843;28;20050;-49
2023/05/07 08:32:58;;;;;;;2.70;1.60;;;20.70;54.60;;;;;;4980215;28;20054;-47
2023/05/07 08:35:26;;;;;;;1.80;1.30;;;20.80;54.70;;;;;;4980596;28;20054;-44
2023/05/07 08:37:54;;;;;;;1.85;1.48;;;20.90;54.70;;;;;;4978221;28;20057;-45
2023/05/07 08:40:22;;;;;;;3.28;1.30;;;20.90;54.60;;;;;;4980884;28;20050;-48
2023/05/07 08:42:52;;;;;;;2.30;1.30;;;21.10;54.60;;;;;;4978879;28;20054;-46
2023/05/07 08:45:20;;;;;;;4.22;1.40;;;21.10;54.30;;;;;;4978663;28;20050;-47
2023/05/07 08:47:52;;;;;;;2.90;1.40;;;21.20;53.90;;;;;;4981182;28;20059;-50
2023/05/07 08:50:21;;;;;;;2.58;1.33;;;21.30;53.80;;;;;;4979309;28;20053;-45
2023/05/07 08:52:49;;;;;;;2.33;1.20;;;21.40;53.70;;;;;;4980758;28;20081;-45
2023/05/07 08:55:17;;;;;;;2.08;1.38;;;21.50;53.50;;;;;;4980426;28;20066;-46
2023/05/07 08:57:44;;;;;;;4.90;1.38;;;21.60;53.30;;;;;;4981915;28;20054;-45
2023/05/07 09:00:13;;;;;;;4.25;2.38;;;21.60;53.00;;;;;;4978826;28;20058;-44
2023/05/07 09:02:40;;;;;;;2.50;1.75;;;21.70;52.80;;;;;;4984394;28;20061;-49
2023/05/07 09:05:08;;;;;;;2.08;1.38;;;21.80;52.80;;;;;;4980708;28;20058;-48
2023/05/07 09:07:37;;;;;;;1.92;1.60;;;21.80;52.60;;;;;;4984173;28;20057;-47
2023/05/07 09:10:05;;;;;;;3.75;1.80;;;21.90;52.50;;;;;;4984172;28;20057;-49
2023/05/07 09:12:34;;;;;;;2.90;1.38;;;21.90;52.20;;;;;;4984580;28;20062;-47
2023/05/07 09:15:02;;;;;;;2.03;1.33;;;21.90;52.00;;;;;;4981369;28;20054;-48
2023/05/07 09:17:30;;;;;;;1.20;1.10;;;22.00;52.00;;;;;;4980072;28;20410;-45
2023/05/07 09:19:57;;;;;;;1.50;1.10;;;22.10;52.10;;;;;;4984825;28;20061;-48
2023/05/07 09:22:24;;;;;;;1.95;1.20;;;22.10;52.10;;;;;;4983674;28;20509;-46
2023/05/07 09:24:52;;;;;;;2.28;1.20;;;22.10;52.20;;;;;;4981798;28;20069;-47
2023/05/07 09:27:20;;;;;;;3.60;1.30;;;22.20;52.10;;;;;;4984136;28;20529;-46
2023/05/07 09:29:47;;;;;;;1.73;1.30;;;22.30;52.20;;;;;;4978877;28;20058;-46
2023/05/07 09:32:18;;;;;;;2.08;1.48;;;22.30;52.20;;;;;;4982906;28;20505;-50
2023/05/07 09:34:47;;;;;;;2.13;1.30;;;22.40;52.00;;;;;;4982337;28;20149;-51
2023/05/07 09:37:14;;;;;;;1.88;0.95;;;22.40;51.90;;;;;;4982728;28;20062;-50
2023/05/07 09:39:43;;;;;;;1.33;0.95;;;22.50;51.70;;;;;;4981961;28;20061;-49
2023/05/07 09:42:12;;;;;;;1.95;1.17;;;22.50;51.40;;;;;;4982468;28;20474;-49
2023/05/07 09:44:40;;;;;;;4.75;1.10;;;22.50;51.40;;;;;;4978965;28;20058;-50
2023/05/07 09:47:08;;;;;;;2.40;1.30;;;22.60;51.50;;;;;;4981479;28;20068;-48
2023/05/07 09:49:37;;;;;;;2.38;1.25;;;22.60;51.40;;;;;;4983616;28;20050;-46
2023/05/07 09:52:08;;;;;;;2.60;1.25;;;22.70;51.30;;;;;;4983671;28;20134;-50
2023/05/07 09:54:37;;;;;;;2.13;1.27;;;22.80;51.20;;;;;;4984273;28;20065;-47
2023/05/07 09:57:06;;;;;;;1.52;1.30;;;22.90;51.30;;;;;;4983666;28;20058;-49
2023/05/07 09:59:37;;;;;;;3.05;1.10;;;23.00;51.10;;;;;;4982915;28;20058;-45
2023/05/07 10:02:05;;;;;;;1.52;1.17;;;23.00;50.60;;;;;;4981825;28;20061;-51
2023/05/07 10:04:33;;;;;;;1.65;1.20;;;23.10;50.40;;;;;;4983666;28;20058;-46
2023/05/07 10:07:01;;;;;;;1.55;1.00;;;23.20;50.30;;;;;;4983833;28;20058;-46
2023/05/07 10:09:28;;;;;;;2.03;0.90;;;23.20;50.20;;;;;;4983675;28;20089;-47
2023/05/07 10:11:57;;;;;;;4.82;1.65;;;23.30;50.10;;;;;;4982692;28;20085;-49
2023/05/07 10:14:24;;;;;;;2.15;1.20;;;23.30;49.90;;;;;;4982801;28;20055;-49
2023/05/07 10:16:55;;;;;;;1.20;1.10;;;23.40;49.70;;;;;;4979718;28;20061;-47
2023/05/07 10:19:23;;;;;;;1.45;1.10;;;23.40;49.60;;;;;;4981457;28;20513;-50
2023/05/07 10:21:56;;;;;;;3.67;1.20;;;23.50;49.40;;;;;;4982634;28;20417;-49
2023/05/07 10:24:29;;;;;;;2.40;1.20;;;23.50;49.10;;;;;;4982731;28;20429;-48
2023/05/07 10:27:00;;;;;;;2.75;1.40;;;23.60;49.10;;;;;;4982476;28;20492;-48
2023/05/07 10:29:38;;;;;;;1.63;1.30;;;23.60;48.70;;;;;;4978480;28;20050;-48
2023/05/07 10:32:28;;;;;;;3.83;1.27;;;23.60;48.60;;;;;;4982484;28;20054;-48
2023/05/07 10:35:00;;;;;;;2.30;1.30;;;23.60;48.40;;;;;;4981227;28;20045;-48
2023/05/07 10:37:27;;;;;;;1.60;1.00;;;23.60;48.50;;;;;;4982452;28;20054;-48
2023/05/07 10:39:54;;;;;;;3.35;1.02;;;23.60;48.10;;;;;;4981742;28;20561;-50
2023/05/07 10:42:22;;;;;;;2.65;1.27;;;23.60;48.00;;;;;;4979590;28;20046;-49
2023/05/07 10:44:49;;;;;;;1.52;1.00;;;23.50;48.40;;;;;;4979919;28;20154;-49
2023/05/07 10:47:18;;;;;;;1.75;1.02;;;23.50;48.60;;;;;;4979072;28;20054;-48
2023/05/07 10:50:22;;;;;;;1.70;1.13;;;23.50;48.10;;;;;;4982378;28;21452;-47
2023/05/07 10:53:22;;;;;;;3.50;1.10;;;23.60;48.00;;;;;;4981631;28;20058;-47
2023/05/07 10:55:51;;;;;;;3.03;1.20;;;23.60;47.70;;;;;;4979606;28;20073;-48
2023/05/07 10:58:26;;;;;;;2.95;1.30;;;23.60;48.10;;;;;;4981875;28;20057;-48
2023/05/07 11:00:57;;;;;;;1.92;1.10;;;23.60;47.80;;;;;;4977023;28;20046;-47
2023/05/07 11:03:26;;;;;;;2.30;0.90;;;23.70;47.30;;;;;;4982362;28;20085;-48
2023/05/07 11:06:13;;;;;;;1.85;1.08;;;23.70;47.30;;;;;;4981599;28;20489;-52
2023/05/07 11:08:56;;;;;;;2.90;1.10;;;23.80;47.10;;;;;;4979859;28;20054;-50
2023/05/07 11:11:47;;;;;;;4.13;1.00;;;23.80;47.10;;;;;;4976285;28;20709;-49
2023/05/07 11:14:15;;;;;;;2.55;1.38;;;23.80;46.90;;;;;;4978633;28;20513;-47
2023/05/07 11:16:44;;;;;;;1.15;0.80;;;23.80;47.20;;;;;;4979934;28;20494;-47
2023/05/07 11:19:12;;;;;;;1.67;0.90;;;23.90;47.20;;;;;;4982605;28;20422;-46
2023/05/07 11:21:41;;;;;;;2.75;1.23;;;23.90;47.10;;;;;;4980375;28;20391;-46
2023/05/07 11:24:09;;;;;;;2.13;1.02;;;24.00;47.00;;;;;;4982054;28;20050;-47
2023/05/07 11:26:45;;;;;;;1.48;1.10;;;24.00;46.80;;;;;;4979456;28;20053;-50
2023/05/07 11:29:14;;;;;;;2.55;1.40;;;24.00;46.40;;;;;;4980583;28;20047;-54
2023/05/07 11:31:41;;;;;;;1.20;1.10;;;24.10;46.50;;;;;;4979379;28;20066;-49
2023/05/07 11:34:09;;;;;;;2.75;1.40;;;24.10;46.40;;;;;;4982639;28;20061;-51
2023/05/07 11:36:43;;;;;;;3.08;1.15;;;24.20;46.00;;;;;;4981184;28;20058;-48
2023/05/07 11:39:28;;;;;;;3.22;1.20;;;24.30;46.10;;;;;;4981413;28;20057;-48
2023/05/07 11:41:55;;;;;;;;;;;24.40;45.90;;;;;;4978120;28;20411;-48
2023/05/07 11:44:22;;;;;;;4.07;1.20;;;24.50;46.60;;;;;;4981695;28;19926;-47
2023/05/07 11:46:50;;;;;;;1.20;1.00;;;24.50;45.70;;;;;;4978456;28;20065;-49
2023/05/07 11:49:18;;;;;;;1.15;1.00;;;24.50;45.60;;;;;;4981887;28;20058;-49
2023/05/07 11:51:47;;;;;;;2.42;1.30;;;24.50;45.50;;;;;;4978961;28;20054;-50
2023/05/07 11:54:17;;;;;;;1.00;0.93;;;24.50;45.40;;;;;;4979470;28;20077;-48
2023/05/07 11:56:46;;;;;;;3.97;1.45;;;24.50;45.10;;;;;;4979234;28;20073;-48
2023/05/07 11:59:13;;;;;;;7.25;1.58;;;24.50;46.10;;;;;;4980338;28;21026;-46
2023/05/07 12:01:40;;;;;;;3.03;1.55;;;24.50;46.60;;;;;;4980149;28;20070;-44
2023/05/07 12:04:07;;;;;;;6.85;1.85;;;24.50;47.50;;;;;;4981301;28;20503;-44
2023/05/07 12:06:38;;;;;;;4.93;1.77;;;24.40;48.00;;;;;;4981823;28;20062;-45
2023/05/07 12:09:11;;;;;;;4.80;1.70;;;24.40;48.80;;;;;;4981367;28;20058;-47
2023/05/07 12:11:40;;;;;;;5.07;1.98;;;24.30;49.00;;;;;;4980968;28;20073;-44
2023/05/07 12:14:07;;;;;;;5.75;1.90;;;24.20;49.20;;;;;;4978492;28;20057;-45
2023/05/07 12:16:35;;;;;;;6.18;1.63;;;24.20;49.70;;;;;;4980713;28;20062;-45
2023/05/07 12:19:03;;;;;;;5.50;1.48;;;24.00;48.70;;;;;;4981681;28;20054;-43
2023/05/07 12:21:30;;;;;;;8.35;1.50;;;23.90;48.50;;;;;;4981791;28;20093;-44
2023/05/07 12:23:58;;;;;;;3.50;1.15;;;23.80;49.20;;;;;;4976416;28;20058;-45
2023/05/07 12:26:26;;;;;;;1.23;1.13;;;23.60;49.00;;;;;;4980050;28;20061;-47
2023/05/07 12:28:54;;;;;;;4.55;1.63;;;23.40;49.50;;;;;;4981045;28;21056;-42
2023/05/07 12:31:21;;;;;;;4.38;1.33;;;23.30;49.90;;;;;;4977485;28;20490;-44
2023/05/07 12:33:48;;;;;;;2.92;1.60;;;23.10;50.00;;;;;;4981210;28;20061;-45
2023/05/07 12:36:16;;;;;;;3.65;1.83;;;23.00;49.90;;;;;;4985605;28;20422;-46
2023/05/07 12:38:43;;;;;;;5.28;1.63;;;22.90;50.70;;;;;;4985763;28;20493;-45
2023/05/07 12:41:12;;;;;;;7.78;1.60;;;22.70;51.00;;;;;;4980466;28;20300;-43
2023/05/07 12:43:40;;;;;;;2.40;1.58;;;22.50;51.20;;;;;;4986134;28;20050;-45
2023/05/07 12:46:08;;;;;;;5.50;1.92;;;22.30;51.60;;;;;;4982259;28;20054;-44
2023/05/07 12:48:38;;;;;;;5.40;1.65;;;22.20;52.10;;;;;;4984334;28;20054;-46
2023/05/07 12:51:06;;;;;;;5.55;1.88;;;22.10;52.90;;;;;;4982225;28;20050;-48
2023/05/07 12:53:34;;;;;;;3.50;1.70;;;22.00;52.90;;;;;;4982722;28;20054;-45
2023/05/07 12:56:01;;;;;;;5.43;1.60;;;21.90;53.20;;;;;;4982177;28;20054;-45